sensor_id;sensor_type;location;lat;lon;timestamp;temperature;humidity
20504;DHT22;10410;51.046;6.980;2024-02-23T00:06:42;7.30;99.90
20504;DHT22;10410;51.046;6.980;2024-02-23T00:13:42;7.20;99.90
20504;DHT22;10410;51.046;6.980;2024-02-23T00:20:43;7.10;99.90
20504;DHT22;10410;51.046;6.980;2024-02-23T00:27:44;7.00;99.90
20504;DHT22;10410;51.046;6.980;2024-02-23T00:34:44;7.00;99.90
20504;DHT22;10410;51.046;6.980;2024-02-23T00:41:45;6.90;99.90
20504;DHT22;10410;51.046;6.980;2024-02-23T00:48:45;6.80;99.90
20504;DHT22;10410;51.046;6.980;2024-02-23T00:55:46;6.60;99.90
20504;DHT22;10410;51.046;6.980;2024-02-23T01:02:46;6.50;99.90
20504;DHT22;10410;51.046;6.980;2024-02-23T01:09:47;6.40;99.90
20504;DHT22;10410;51.046;6.980;2024-02-23T01:16:48;6.40;99.90
20504;DHT22;10410;51.046;6.980;2024-02-23T01:23:49;6.30;99.90
20504;DHT22;10410;51.046;6.980;2024-02-23T01:30:49;6.20;99.90
20504;DHT22;10410;51.046;6.980;2024-02-23T01:37:50;6.20;99.90
20504;DHT22;10410;51.046;6.980;2024-02-23T01:44:51;6.20;99.90
20504;DHT22;10410;51.046;6.980;2024-02-23T01:51:51;6.10;99.90
20504;DHT22;10410;51.046;6.980;2024-02-23T01:58:52;6.00;99.90
20504;DHT22;10410;51.046;6.980;2024-02-23T02:05:55;6.00;99.90
20504;DHT22;10410;51.046;6.980;2024-02-23T02:13:03;5.90;99.90
20504;DHT22;10410;51.046;6.980;2024-02-23T02:20:04;5.80;99.90
20504;DHT22;10410;51.046;6.980;2024-02-23T02:27:05;5.70;99.90
20504;DHT22;10410;51.046;6.980;2024-02-23T02:34:06;5.70;99.90
20504;DHT22;10410;51.046;6.980;2024-02-23T02:41:08;5.60;99.90
20504;DHT22;10410;51.046;6.980;2024-02-23T02:48:08;5.60;99.90
20504;DHT22;10410;51.046;6.980;2024-02-23T02:55:10;5.50;99.90
20504;DHT22;10410;51.046;6.980;2024-02-23T03:02:10;5.50;99.90
20504;DHT22;10410;51.046;6.980;2024-02-23T03:09:11;5.50;99.90
20504;DHT22;10410;51.046;6.980;2024-02-23T03:16:18;5.50;99.90
20504;DHT22;10410;51.046;6.980;2024-02-23T03:23:18;5.50;99.90
20504;DHT22;10410;51.046;6.980;2024-02-23T03:30:19;5.40;99.90
20504;DHT22;10410;51.046;6.980;2024-02-23T03:37:19;5.40;99.90
20504;DHT22;10410;51.046;6.980;2024-02-23T03:44:20;5.40;99.90
20504;DHT22;10410;51.046;6.980;2024-02-23T03:51:21;5.30;99.90
20504;DHT22;10410;51.046;6.980;2024-02-23T03:58:21;5.40;99.90
20504;DHT22;10410;51.046;6.980;2024-02-23T04:05:22;5.30;99.90
20504;DHT22;10410;51.046;6.980;2024-02-23T04:12:23;5.40;99.90
20504;DHT22;10410;51.046;6.980;2024-02-23T04:19:24;5.40;99.90
20504;DHT22;10410;51.046;6.980;2024-02-23T04:26:24;5.50;99.90
20504;DHT22;10410;51.046;6.980;2024-02-23T04:33:24;5.50;99.90
20504;DHT22;10410;51.046;6.980;2024-02-23T04:40:25;5.60;99.90
20504;DHT22;10410;51.046;6.980;2024-02-23T04:47:25;5.70;99.90
20504;DHT22;10410;51.046;6.980;2024-02-23T04:54:26;5.80;99.90
20504;DHT22;10410;51.046;6.980;2024-02-23T05:01:26;5.80;99.90
20504;DHT22;10410;51.046;6.980;2024-02-23T05:08:27;5.90;99.90
20504;DHT22;10410;51.046;6.980;2024-02-23T05:15:28;5.90;99.90
20504;DHT22;10410;51.046;6.980;2024-02-23T05:22:29;5.90;99.90
20504;DHT22;10410;51.046;6.980;2024-02-23T05:29:29;5.80;99.90
20504;DHT22;10410;51.046;6.980;2024-02-23T05:36:30;5.90;99.90
20504;DHT22;10410;51.046;6.980;2024-02-23T05:43:30;5.90;99.90
20504;DHT22;10410;51.046;6.980;2024-02-23T05:50:31;5.80;99.90
20504;DHT22;10410;51.046;6.980;2024-02-23T05:57:32;5.80;99.90
20504;DHT22;10410;51.046;6.980;2024-02-23T06:04:32;5.80;99.90
20504;DHT22;10410;51.046;6.980;2024-02-23T06:11:32;5.70;99.90
20504;DHT22;10410;51.046;6.980;2024-02-23T06:18:33;5.70;99.90
20504;DHT22;10410;51.046;6.980;2024-02-23T06:25:34;5.70;99.90
20504;DHT22;10410;51.046;6.980;2024-02-23T06:32:35;5.80;99.90
20504;DHT22;10410;51.046;6.980;2024-02-23T06:39:37;5.80;99.90
20504;DHT22;10410;51.046;6.980;2024-02-23T06:46:37;5.70;99.90
20504;DHT22;10410;51.046;6.980;2024-02-23T06:53:38;5.70;99.90
20504;DHT22;10410;51.046;6.980;2024-02-23T07:00:38;5.60;99.90
20504;DHT22;10410;51.046;6.980;2024-02-23T07:07:39;5.60;99.90
20504;DHT22;10410;51.046;6.980;2024-02-23T07:14:40;5.60;99.90
20504;DHT22;10410;51.046;6.980;2024-02-23T07:21:41;5.50;99.90
20504;DHT22;10410;51.046;6.980;2024-02-23T07:28:43;5.40;99.90
20504;DHT22;10410;51.046;6.980;2024-02-23T07:35:44;5.40;99.90
20504;DHT22;10410;51.046;6.980;2024-02-23T07:42:44;5.30;99.90
20504;DHT22;10410;51.046;6.980;2024-02-23T07:49:45;5.10;99.90
20504;DHT22;10410;51.046;6.980;2024-02-23T07:56:46;5.00;99.90
20504;DHT22;10410;51.046;6.980;2024-02-23T08:03:46;5.00;99.90
20504;DHT22;10410;51.046;6.980;2024-02-23T08:10:47;5.20;99.90
20504;DHT22;10410;51.046;6.980;2024-02-23T08:17:47;5.40;99.90
20504;DHT22;10410;51.046;6.980;2024-02-23T08:24:47;5.80;99.90
20504;DHT22;10410;51.046;6.980;2024-02-23T08:31:48;6.10;99.90
20504;DHT22;10410;51.046;6.980;2024-02-23T08:38:49;6.30;99.90
20504;DHT22;10410;51.046;6.980;2024-02-23T08:45:49;6.50;99.90
20504;DHT22;10410;51.046;6.980;2024-02-23T08:52:50;6.60;99.90
20504;DHT22;10410;51.046;6.980;2024-02-23T08:59:50;6.80;99.90
20504;DHT22;10410;51.046;6.980;2024-02-23T09:06:51;7.00;99.90
20504;DHT22;10410;51.046;6.980;2024-02-23T09:13:53;7.20;99.90
20504;DHT22;10410;51.046;6.980;2024-02-23T09:20:53;7.30;99.90
20504;DHT22;10410;51.046;6.980;2024-02-23T09:27:57;7.40;99.90
20504;DHT22;10410;51.046;6.980;2024-02-23T09:34:57;7.60;99.90
20504;DHT22;10410;51.046;6.980;2024-02-23T09:41:59;7.70;99.90
20504;DHT22;10410;51.046;6.980;2024-02-23T09:49:00;7.80;99.90
20504;DHT22;10410;51.046;6.980;2024-02-23T09:56:01;7.80;99.90
20504;DHT22;10410;51.046;6.980;2024-02-23T10:03:02;7.90;99.90
20504;DHT22;10410;51.046;6.980;2024-02-23T10:10:08;8.20;99.90
20504;DHT22;10410;51.046;6.980;2024-02-23T10:17:09;8.30;99.90
20504;DHT22;10410;51.046;6.980;2024-02-23T10:24:10;8.40;99.90
20504;DHT22;10410;51.046;6.980;2024-02-23T10:31:10;8.40;99.90
20504;DHT22;10410;51.046;6.980;2024-02-23T10:38:14;8.50;99.90
20504;DHT22;10410;51.046;6.980;2024-02-23T10:45:18;8.60;99.90
20504;DHT22;10410;51.046;6.980;2024-02-23T10:52:19;8.70;99.90
20504;DHT22;10410;51.046;6.980;2024-02-23T10:59:20;8.70;99.90
20504;DHT22;10410;51.046;6.980;2024-02-23T11:06:27;8.70;99.90
20504;DHT22;10410;51.046;6.980;2024-02-23T11:13:34;8.70;99.90
20504;DHT22;10410;51.046;6.980;2024-02-23T11:20:36;8.70;99.90
20504;DHT22;10410;51.046;6.980;2024-02-23T11:27:38;8.70;99.90
20504;DHT22;10410;51.046;6.980;2024-02-23T11:34:41;8.60;99.90
20504;DHT22;10410;51.046;6.980;2024-02-23T11:41:41;8.60;99.90
20504;DHT22;10410;51.046;6.980;2024-02-23T11:48:42;8.60;99.90
20504;DHT22;10410;51.046;6.980;2024-02-23T11:55:43;8.70;99.90
20504;DHT22;10410;51.046;6.980;2024-02-23T12:02:44;9.00;99.90
20504;DHT22;10410;51.046;6.980;2024-02-23T12:09:48;9.10;99.90
20504;DHT22;10410;51.046;6.980;2024-02-23T12:16:49;9.10;99.90
20504;DHT22;10410;51.046;6.980;2024-02-23T12:23:51;9.20;99.90
20504;DHT22;10410;51.046;6.980;2024-02-23T12:31:02;9.20;99.90
20504;DHT22;10410;51.046;6.980;2024-02-23T12:38:03;9.20;99.90
20504;DHT22;10410;51.046;6.980;2024-02-23T12:45:04;9.20;99.90
20504;DHT22;10410;51.046;6.980;2024-02-23T12:52:04;9.20;99.90
20504;DHT22;10410;51.046;6.980;2024-02-23T12:59:04;9.20;99.90
20504;DHT22;10410;51.046;6.980;2024-02-23T13:06:05;9.30;99.90
20504;DHT22;10410;51.046;6.980;2024-02-23T13:13:06;9.50;99.90
20504;DHT22;10410;51.046;6.980;2024-02-23T13:20:07;9.60;99.90
20504;DHT22;10410;51.046;6.980;2024-02-23T13:27:11;9.70;99.90
20504;DHT22;10410;51.046;6.980;2024-02-23T13:34:12;9.80;99.90
20504;DHT22;10410;51.046;6.980;2024-02-23T13:41:15;9.90;99.90
20504;DHT22;10410;51.046;6.980;2024-02-23T13:48:16;10.00;99.90
20504;DHT22;10410;51.046;6.980;2024-02-23T13:55:18;10.20;99.90
20504;DHT22;10410;51.046;6.980;2024-02-23T14:02:25;10.20;99.90
20504;DHT22;10410;51.046;6.980;2024-02-23T14:09:26;10.20;99.90
20504;DHT22;10410;51.046;6.980;2024-02-23T14:16:27;10.50;99.90
20504;DHT22;10410;51.046;6.980;2024-02-23T14:23:27;10.80;99.90
20504;DHT22;10410;51.046;6.980;2024-02-23T14:30:27;10.70;99.90
20504;DHT22;10410;51.046;6.980;2024-02-23T14:37:28;10.70;99.90
20504;DHT22;10410;51.046;6.980;2024-02-23T14:44:29;10.70;99.90
20504;DHT22;10410;51.046;6.980;2024-02-23T14:51:29;10.50;99.90
20504;DHT22;10410;51.046;6.980;2024-02-23T14:58:30;10.40;99.90
20504;DHT22;10410;51.046;6.980;2024-02-23T15:05:30;10.20;99.90
20504;DHT22;10410;51.046;6.980;2024-02-23T15:12:31;10.20;99.90
20504;DHT22;10410;51.046;6.980;2024-02-23T15:19:32;10.10;99.90
20504;DHT22;10410;51.046;6.980;2024-02-23T15:26:33;10.00;99.90
20504;DHT22;10410;51.046;6.980;2024-02-23T15:33:33;9.90;99.90
20504;DHT22;10410;51.046;6.980;2024-02-23T15:40:34;10.00;99.90
20504;DHT22;10410;51.046;6.980;2024-02-23T15:47:34;10.00;99.90
20504;DHT22;10410;51.046;6.980;2024-02-23T15:54:35;10.10;99.90
20504;DHT22;10410;51.046;6.980;2024-02-23T16:01:37;10.10;99.90
20504;DHT22;10410;51.046;6.980;2024-02-23T16:08:42;10.00;99.90
20504;DHT22;10410;51.046;6.980;2024-02-23T16:15:43;9.90;99.90
20504;DHT22;10410;51.046;6.980;2024-02-23T16:22:44;9.80;99.90
20504;DHT22;10410;51.046;6.980;2024-02-23T16:29:44;9.70;99.90
20504;DHT22;10410;51.046;6.980;2024-02-23T16:36:45;9.70;99.90
20504;DHT22;10410;51.046;6.980;2024-02-23T16:43:45;9.60;99.90
20504;DHT22;10410;51.046;6.980;2024-02-23T16:50:46;9.50;99.90
20504;DHT22;10410;51.046;6.980;2024-02-23T16:57:47;9.40;99.90
20504;DHT22;10410;51.046;6.980;2024-02-23T17:04:48;9.30;99.90
20504;DHT22;10410;51.046;6.980;2024-02-23T17:11:48;9.20;99.90
20504;DHT22;10410;51.046;6.980;2024-02-23T17:18:49;9.10;99.90
20504;DHT22;10410;51.046;6.980;2024-02-23T17:25:49;9.10;99.90
20504;DHT22;10410;51.046;6.980;2024-02-23T17:32:50;9.00;99.90
20504;DHT22;10410;51.046;6.980;2024-02-23T17:39:51;9.00;99.90
20504;DHT22;10410;51.046;6.980;2024-02-23T17:46:51;8.90;99.90
20504;DHT22;10410;51.046;6.980;2024-02-23T17:53:52;8.80;99.90
20504;DHT22;10410;51.046;6.980;2024-02-23T18:00:52;8.70;99.90
20504;DHT22;10410;51.046;6.980;2024-02-23T18:07:53;8.60;99.90
20504;DHT22;10410;51.046;6.980;2024-02-23T18:14:53;8.40;99.90
20504;DHT22;10410;51.046;6.980;2024-02-23T18:21:54;8.30;99.90
20504;DHT22;10410;51.046;6.980;2024-02-23T18:28:54;8.20;99.90
20504;DHT22;10410;51.046;6.980;2024-02-23T18:35:55;8.00;99.90
20504;DHT22;10410;51.046;6.980;2024-02-23T18:42:55;8.00;99.90
20504;DHT22;10410;51.046;6.980;2024-02-23T18:49:56;7.90;99.90
20504;DHT22;10410;51.046;6.980;2024-02-23T18:56:56;7.90;99.90
20504;DHT22;10410;51.046;6.980;2024-02-23T19:03:58;7.90;99.90
20504;DHT22;10410;51.046;6.980;2024-02-23T19:10:58;7.80;99.90
20504;DHT22;10410;51.046;6.980;2024-02-23T19:18:00;7.80;99.90
20504;DHT22;10410;51.046;6.980;2024-02-23T19:25:01;7.90;99.90
20504;DHT22;10410;51.046;6.980;2024-02-23T19:32:01;7.90;99.90
20504;DHT22;10410;51.046;6.980;2024-02-23T19:39:02;7.70;99.90
20504;DHT22;10410;51.046;6.980;2024-02-23T19:46:11;7.60;99.90
20504;DHT22;10410;51.046;6.980;2024-02-23T19:53:17;7.60;99.90
20504;DHT22;10410;51.046;6.980;2024-02-23T20:00:18;7.60;99.90
20504;DHT22;10410;51.046;6.980;2024-02-23T20:07:19;7.60;99.90
20504;DHT22;10410;51.046;6.980;2024-02-23T20:14:21;7.50;99.90
20504;DHT22;10410;51.046;6.980;2024-02-23T20:21:22;7.40;99.90
20504;DHT22;10410;51.046;6.980;2024-02-23T20:28:23;7.20;99.90
20504;DHT22;10410;51.046;6.980;2024-02-23T20:35:23;7.10;99.90
20504;DHT22;10410;51.046;6.980;2024-02-23T20:42:23;6.90;99.90
20504;DHT22;10410;51.046;6.980;2024-02-23T20:49:24;6.80;99.90
20504;DHT22;10410;51.046;6.980;2024-02-23T20:56:24;6.80;99.90
20504;DHT22;10410;51.046;6.980;2024-02-23T21:03:27;6.80;99.90
20504;DHT22;10410;51.046;6.980;2024-02-23T21:10:27;6.70;99.90
20504;DHT22;10410;51.046;6.980;2024-02-23T21:17:28;6.70;99.90
20504;DHT22;10410;51.046;6.980;2024-02-23T21:24:29;6.70;99.90
20504;DHT22;10410;51.046;6.980;2024-02-23T21:31:29;6.70;99.90
20504;DHT22;10410;51.046;6.980;2024-02-23T21:38:30;6.70;99.90
20504;DHT22;10410;51.046;6.980;2024-02-23T21:45:30;6.70;99.90
20504;DHT22;10410;51.046;6.980;2024-02-23T21:52:31;6.70;99.90
20504;DHT22;10410;51.046;6.980;2024-02-23T21:59:32;6.70;99.90
20504;DHT22;10410;51.046;6.980;2024-02-23T22:06:32;6.70;99.90
20504;DHT22;10410;51.046;6.980;2024-02-23T22:13:33;6.70;99.90
20504;DHT22;10410;51.046;6.980;2024-02-23T22:20:33;6.70;99.90
20504;DHT22;10410;51.046;6.980;2024-02-23T22:27:34;6.60;99.90
20504;DHT22;10410;51.046;6.980;2024-02-23T22:34:37;6.60;99.90
20504;DHT22;10410;51.046;6.980;2024-02-23T22:41:38;6.60;99.90
20504;DHT22;10410;51.046;6.980;2024-02-23T22:48:39;6.50;99.90
20504;DHT22;10410;51.046;6.980;2024-02-23T22:55:40;6.40;99.90
20504;DHT22;10410;51.046;6.980;2024-02-23T23:02:40;6.40;99.90
20504;DHT22;10410;51.046;6.980;2024-02-23T23:09:40;6.40;99.90
20504;DHT22;10410;51.046;6.980;2024-02-23T23:16:41;6.30;99.90
20504;DHT22;10410;51.046;6.980;2024-02-23T23:23:41;6.20;99.90
20504;DHT22;10410;51.046;6.980;2024-02-23T23:30:42;6.10;99.90
20504;DHT22;10410;51.046;6.980;2024-02-23T23:37:42;6.00;99.90
20504;DHT22;10410;51.046;6.980;2024-02-23T23:44:43;5.90;99.90
20504;DHT22;10410;51.046;6.980;2024-02-23T23:51:43;5.90;99.90
20504;DHT22;10410;51.046;6.980;2024-02-23T23:58:56;5.80;99.90
